Time;durP1;ratioP1;P1;durP2;ratioP2;P2;SDS_P1;SDS_P2;PMS_P1;PMS_P2;Temp;Humidity;BMP_temperature;BMP_pressure;BME280_temperature;BME280_humidity;BME280_pressure;Samples;Min_cycle;Max_cycle;Signal;HPM_P1;HPM_P2
2022/08/12 00:45:04;;;;;;;5.37;1.50;;;15.80;99.90;;;;;;4993762;28;20184;-72
2022/08/12 00:47:34;;;;;;;7.13;1.40;;;15.80;99.90;;;;;;4993330;28;20257;-69
2022/08/12 00:50:02;;;;;;;2.80;1.20;;;15.90;99.90;;;;;;4993365;28;20699;-70
2022/08/12 00:52:29;;;;;;;2.33;1.37;;;15.90;99.90;;;;;;4993520;28;20193;-72
2022/08/12 00:55:03;;;;;;;2.43;1.30;;;15.90;99.90;;;;;;4993605;28;20658;-71
2022/08/12 00:57:36;;;;;;;2.77;1.40;;;15.80;99.90;;;;;;4993356;28;20181;-71
2022/08/12 01:00:13;;;;;;;5.23;1.50;;;15.90;99.90;;;;;;4993455;28;20621;-70
2022/08/12 01:02:46;;;;;;;2.90;1.13;;;15.90;99.90;;;;;;4993493;28;20266;-70
2022/08/12 01:13:41;;;;;;;2.07;1.10;;;15.90;99.90;;;;;;4993908;28;20635;-72
2022/08/12 01:16:10;;;;;;;4.20;1.00;;;15.80;99.90;;;;;;4993390;28;20185;-71
2022/08/12 01:18:40;;;;;;;2.33;1.20;;;15.90;99.90;;;;;;4993177;28;20171;-71
2022/08/12 01:21:44;;;;;;;0.97;0.87;;;15.90;99.90;;;;;;4993304;28;20535;-71
2022/08/12 01:24:29;;;;;;;4.63;1.53;;;15.80;99.90;;;;;;4993249;28;20618;-74
2022/08/12 01:26:58;;;;;;;4.37;1.50;;;15.80;99.90;;;;;;4993301;28;20171;-72
2022/08/12 01:29:28;;;;;;;2.53;1.30;;;15.80;99.90;;;;;;4993245;28;20237;-71
2022/08/12 01:31:58;;;;;;;1.97;0.90;;;15.70;99.90;;;;;;4992968;28;20240;-71
2022/08/12 01:34:38;;;;;;;3.20;1.07;;;15.70;99.90;;;;;;4993280;28;20269;-77
2022/08/12 01:37:07;;;;;;;7.80;1.10;;;15.60;99.90;;;;;;4993841;28;20186;-71
2022/08/12 01:39:47;;;;;;;3.40;1.30;;;15.60;99.90;;;;;;4993198;28;20181;-71
2022/08/12 01:42:19;;;;;;;3.30;1.17;;;15.50;99.90;;;;;;4993462;28;20229;-72
2022/08/12 01:44:55;;;;;;;4.73;1.20;;;15.50;99.90;;;;;;4992736;28;20734;-72
2022/08/12 01:47:38;;;;;;;3.03;1.20;;;15.50;99.90;;;;;;4995779;28;20214;-75
2022/08/12 01:50:36;;;;;;;3.43;1.10;;;15.60;99.90;;;;;;4994013;28;20240;-71
2022/08/12 01:53:11;;;;;;;1.43;0.80;;;15.60;99.90;;;;;;4997223;28;20187;-71
2022/08/12 01:55:42;;;;;;;4.10;1.03;;;15.60;99.90;;;;;;4996664;28;20187;-72
2022/08/12 01:58:21;;;;;;;3.63;1.30;;;15.70;99.90;;;;;;4996883;28;20342;-70
2022/08/12 02:01:11;;;;;;;8.23;1.37;;;15.80;99.90;;;;;;4996634;28;20182;-74
2022/08/12 02:13:20;;;;;;;6.63;1.30;;;16.60;99.90;;;;;;4996505;28;20197;-75
2022/08/12 02:16:01;;;;;;;2.80;1.37;;;16.80;99.90;;;;;;4996429;28;20181;-72
2022/08/12 02:18:50;;;;;;;1.73;1.07;;;16.90;99.90;;;;;;4996121;28;20572;-71
2022/08/12 02:21:55;;;;;;;1.20;1.10;;;16.90;99.90;;;;;;4995854;28;20241;-75
2022/08/12 02:24:26;;;;;;;4.10;1.00;;;16.80;99.90;;;;;;4996313;28;20253;-76
2022/08/12 02:26:55;;;;;;;2.07;1.10;;;16.80;99.90;;;;;;4995898;28;20225;-71
2022/08/12 02:29:24;;;;;;;5.90;1.10;;;16.90;99.90;;;;;;4995871;28;20250;-71
2022/08/12 02:31:53;;;;;;;3.93;1.07;;;17.00;99.90;;;;;;4995531;28;20209;-71
2022/08/12 02:34:23;;;;;;;1.93;1.03;;;17.00;99.90;;;;;;4995800;28;20535;-71
2022/08/12 02:36:56;;;;;;;1.00;0.90;;;17.00;99.90;;;;;;4995523;28;20221;-75
2022/08/12 02:39:29;;;;;;;3.93;1.10;;;16.90;99.90;;;;;;4995852;28;20182;-73
2022/08/12 02:42:01;;;;;;;2.00;0.80;;;17.00;99.90;;;;;;4995967;28;20260;-73
2022/08/12 02:44:35;;;;;;;1.13;1.03;;;17.30;99.90;;;;;;4996175;28;20185;-74
2022/08/12 02:47:06;;;;;;;1.20;1.00;;;17.70;99.90;;;;;;4995124;28;20188;-74
2022/08/12 02:49:39;;;;;;;1.20;1.00;;;18.10;99.90;;;;;;4995369;28;20238;-73
2022/08/12 02:52:09;;;;;;;2.37;0.90;;;18.60;99.90;;;;;;4995236;28;20257;-73
2022/08/12 02:54:38;;;;;;;2.07;1.00;;;18.80;99.90;;;;;;4995356;28;20197;-74
2022/08/12 02:57:06;;;;;;;1.20;0.90;;;18.70;99.90;;;;;;4995168;28;20179;-75
2022/08/12 02:59:35;;;;;;;1.00;0.90;;;18.50;99.90;;;;;;4977421;28;20757;-73
2022/08/12 03:02:03;;;;;;;3.40;0.93;;;18.30;99.90;;;;;;4995325;28;20182;-72
2022/08/12 03:04:43;;;;;;;1.27;0.77;;;18.20;99.90;;;;;;4994900;28;20694;-72
2022/08/12 03:07:20;;;;;;;2.20;0.90;;;18.00;99.90;;;;;;4994894;28;20183;-72
2022/08/12 03:10:09;;;;;;;1.40;0.80;;;18.00;99.90;;;;;;4995020;28;20595;-72
2022/08/12 03:12:45;;;;;;;1.37;0.70;;;18.20;99.90;;;;;;4995102;28;20673;-75
2022/08/12 03:15:16;;;;;;;2.13;0.90;;;18.40;99.90;;;;;;4994997;28;20181;-76
2022/08/12 03:17:54;;;;;;;1.10;0.90;;;18.40;99.90;;;;;;4994687;28;20179;-74
2022/08/12 03:20:23;;;;;;;5.10;0.87;;;18.30;99.90;;;;;;4994973;28;20182;-74
2022/08/12 03:22:52;;;;;;;0.80;0.70;;;18.00;99.90;;;;;;4994703;28;20203;-73
2022/08/12 03:25:25;;;;;;;1.13;0.87;;;17.70;99.90;;;;;;4994854;28;20182;-72
2022/08/12 03:27:55;;;;;;;2.07;0.90;;;17.60;99.90;;;;;;4994526;28;20167;-73
2022/08/12 03:30:26;;;;;;;1.70;0.80;;;17.70;99.90;;;;;;4994701;28;20699;-72
2022/08/12 03:32:56;;;;;;;2.43;0.90;;;17.70;99.90;;;;;;4994794;28;20206;-73
2022/08/12 03:35:32;;;;;;;0.87;0.77;;;17.80;99.90;;;;;;4994731;28;20240;-73
2022/08/12 03:38:04;;;;;;;1.20;0.90;;;17.70;99.90;;;;;;4994654;28;20271;-72
2022/08/12 04:01:15;;;;;;;1.47;1.10;;;17.40;99.90;;;;;;4993521;28;20225;-74
2022/08/12 04:03:52;;;;;;;2.13;1.10;;;17.30;99.90;;;;;;4993732;28;20187;-75
2022/08/12 04:06:26;;;;;;;1.40;0.97;;;17.30;99.90;;;;;;4991052;28;20603;-76
2022/08/12 04:08:58;;;;;;;2.03;1.10;;;17.30;99.90;;;;;;4992428;28;20222;-74
2022/08/12 04:17:18;;;;;;;2.83;0.80;;;17.00;99.90;;;;;;4971522;28;20290;-75
2022/08/12 04:19:50;;;;;;;3.03;0.90;;;16.90;99.90;;;;;;4973227;28;20259;-76
2022/08/12 04:22:18;;;;;;;2.03;1.03;;;16.90;99.90;;;;;;4973250;28;20179;-75
2022/08/12 04:24:46;;;;;;;2.70;0.97;;;16.90;99.90;;;;;;4973074;28;20214;-75
2022/08/12 04:27:14;;;;;;;1.83;0.87;;;16.90;99.90;;;;;;4955792;28;20275;-74
2022/08/12 04:29:41;;;;;;;3.50;1.00;;;16.90;99.90;;;;;;4972839;28;20652;-74
2022/08/12 04:32:11;;;;;;;1.17;0.90;;;16.90;99.90;;;;;;4972910;28;20183;-74
2022/08/12 04:34:38;;;;;;;2.70;0.97;;;16.80;99.90;;;;;;4972796;28;20261;-73
2022/08/12 04:37:06;;;;;;;1.27;0.90;;;16.80;99.90;;;;;;4955375;28;20183;-73
2022/08/12 04:39:34;;;;;;;2.70;0.73;;;16.80;99.90;;;;;;4972663;28;20186;-72
2022/08/12 04:42:02;;;;;;;0.87;0.67;;;16.70;99.90;;;;;;4972682;28;20214;-74
2022/08/12 04:44:31;;;;;;;0.80;0.80;;;16.70;99.90;;;;;;4971045;28;20186;-73
2022/08/12 04:46:59;;;;;;;1.03;0.70;;;16.70;99.90;;;;;;4970154;28;20187;-71
2022/08/12 04:49:29;;;;;;;1.87;1.10;;;16.80;99.90;;;;;;4952928;29;20634;-71
2022/08/12 04:51:58;;;;;;;1.57;0.87;;;16.80;99.90;;;;;;4952493;29;20188;-70
2022/08/12 04:54:27;;;;;;;2.47;0.80;;;16.70;99.90;;;;;;4954591;28;20175;-70
2022/08/12 04:56:55;;;;;;;1.93;1.10;;;16.80;99.90;;;;;;4969637;28;20194;-71
2022/08/12 04:59:22;;;;;;;1.80;0.90;;;16.70;99.90;;;;;;4971427;28;20190;-72
2022/08/12 05:01:51;;;;;;;1.47;0.80;;;16.80;99.90;;;;;;4971918;28;20214;-72
2022/08/12 05:04:21;;;;;;;1.23;0.80;;;16.90;99.90;;;;;;4972273;28;20210;-70
2022/08/12 05:06:49;;;;;;;1.37;0.97;;;16.90;99.90;;;;;;4972112;28;20225;-70
2022/08/12 05:09:17;;;;;;;3.33;0.93;;;17.00;99.90;;;;;;4972135;28;20219;-70
2022/08/12 05:11:50;;;;;;;4.57;1.03;;;17.00;99.90;;;;;;4971955;28;20179;-71
2022/08/12 05:14:18;;;;;;;1.80;1.20;;;16.90;99.90;;;;;;4972318;28;20188;-71
2022/08/12 05:16:47;;;;;;;2.93;1.33;;;16.80;99.90;;;;;;4971474;28;20210;-71
2022/08/12 05:19:15;;;;;;;2.93;2.23;;;16.70;99.90;;;;;;4954712;28;20230;-71
2022/08/12 05:21:45;;;;;;;4.37;3.17;;;16.70;99.90;;;;;;4972656;28;20214;-70
2022/08/12 05:24:13;;;;;;;23.00;16.90;;;16.70;99.90;;;;;;4975769;28;20267;-71
2022/08/12 05:26:42;;;;;;;1.90;1.53;;;16.60;99.90;;;;;;4976042;28;20187;-71
2022/08/12 05:29:13;;;;;;;2.20;1.17;;;16.70;99.90;;;;;;4975763;28;20848;-70
2022/08/12 05:31:42;;;;;;;1.33;1.10;;;16.70;99.90;;;;;;4959136;28;20269;-70
2022/08/12 05:34:13;;;;;;;2.20;1.20;;;16.80;99.90;;;;;;4975894;28;20175;-70
2022/08/12 05:36:43;;;;;;;3.17;1.63;;;16.80;99.90;;;;;;4958261;28;20195;-71
2022/08/12 05:39:11;;;;;;;3.43;2.03;;;16.70;99.90;;;;;;4975445;28;20195;-70
2022/08/12 05:41:40;;;;;;;7.90;4.20;;;16.70;99.90;;;;;;4975861;28;20241;-72
2022/08/12 05:44:12;;;;;;;2.83;1.20;;;16.60;99.90;;;;;;4975853;28;20227;-70
2022/08/12 05:46:40;;;;;;;2.23;1.10;;;16.60;99.90;;;;;;4975457;28;20684;-70
2022/08/12 05:49:08;;;;;;;3.60;1.37;;;16.40;99.90;;;;;;4975473;28;20227;-71
2022/08/12 05:51:38;;;;;;;5.97;2.90;;;16.40;99.90;;;;;;4976782;28;20258;-71
2022/08/12 05:54:07;;;;;;;3.03;1.73;;;16.30;99.90;;;;;;4977054;28;20179;-71
2022/08/12 05:56:36;;;;;;;1.70;1.33;;;16.30;99.90;;;;;;4976636;28;20702;-71
2022/08/12 05:59:06;;;;;;;1.87;1.30;;;16.10;99.90;;;;;;4976843;28;20174;-71
2022/08/12 06:01:35;;;;;;;2.70;1.30;;;16.00;99.90;;;;;;4943708;28;20194;-70
2022/08/12 06:04:02;;;;;;;36.37;19.83;;;15.90;99.90;;;;;;4969489;28;20665;-70
2022/08/12 06:06:41;;;;;;;9.03;4.70;;;16.00;99.90;;;;;;4976588;28;20175;-70
2022/08/12 06:09:10;;;;;;;10.70;6.00;;;16.00;99.90;;;;;;4975907;28;20568;-70
2022/08/12 06:11:41;;;;;;;8.23;5.47;;;16.00;99.90;;;;;;4976425;28;20186;-71
2022/08/12 06:14:09;;;;;;;6.07;3.00;;;16.00;99.90;;;;;;4976812;28;20237;-71
2022/08/12 06:16:37;;;;;;;5.93;1.50;;;15.90;99.90;;;;;;4976337;28;20202;-71
2022/08/12 06:19:07;;;;;;;2.83;1.70;;;15.70;99.90;;;;;;4975738;28;20244;-72
2022/08/12 06:21:36;;;;;;;2.37;1.30;;;15.50;99.90;;;;;;4976714;28;20186;-71
2022/08/12 06:24:04;;;;;;;2.43;1.20;;;15.30;99.90;;;;;;4976556;28;20334;-71
2022/08/12 06:26:33;;;;;;;7.57;4.10;;;15.20;99.90;;;;;;4976332;28;20183;-71
2022/08/12 06:29:01;;;;;;;6.80;4.83;;;15.10;99.90;;;;;;4976209;28;20207;-70
2022/08/12 06:31:29;;;;;;;7.37;3.13;;;14.90;99.90;;;;;;4976187;28;20187;-70
2022/08/12 06:33:57;;;;;;;4.07;2.17;;;14.90;99.90;;;;;;4971148;28;20645;-71
2022/08/12 06:36:26;;;;;;;2.83;1.83;;;15.00;99.90;;;;;;4958961;28;20184;-71
2022/08/12 06:38:54;;;;;;;4.17;2.00;;;15.00;99.90;;;;;;4976337;28;20282;-71
2022/08/12 06:44:07;;;;;;;4.87;2.23;;;14.90;99.90;;;;;;4976213;28;20198;-72
2022/08/12 06:46:37;;;;;;;4.40;1.57;;;14.90;99.90;;;;;;4975435;28;20630;-72
2022/08/12 06:49:11;;;;;;;3.87;1.90;;;14.90;99.90;;;;;;4973563;28;20218;-76
2022/08/12 06:51:38;;;;;;;2.70;2.33;;;14.90;99.90;;;;;;4974527;28;20167;-71
2022/08/12 06:54:09;;;;;;;17.70;8.63;;;15.00;99.90;;;;;;4974736;28;20190;-72
2022/08/12 06:56:37;;;;;;;7.13;2.57;;;15.00;99.90;;;;;;4975587;28;20587;-69
2022/08/12 06:59:04;;;;;;;4.73;2.47;;;15.10;99.90;;;;;;4974182;28;20716;-70
2022/08/12 07:01:32;;;;;;;6.73;2.43;;;15.10;99.90;;;;;;4974668;28;20179;-69
2022/08/12 07:04:00;;;;;;;7.60;3.50;;;15.00;99.90;;;;;;4974331;28;20736;-79
2022/08/12 07:06:29;;;;;;;6.70;4.80;;;15.00;99.90;;;;;;4974587;28;20228;-70
2022/08/12 07:08:57;;;;;;;22.37;13.00;;;15.00;99.90;;;;;;4974312;28;20615;-72
2022/08/12 07:11:27;;;;;;;4.73;2.67;;;15.00;99.90;;;;;;4974388;28;20210;-70
2022/08/12 07:13:57;;;;;;;4.63;1.83;;;15.00;99.90;;;;;;4974988;28;20630;-70
2022/08/12 07:16:25;;;;;;;4.80;1.70;;;14.90;99.90;;;;;;4958454;28;20700;-70
2022/08/12 07:18:54;;;;;;;4.23;2.20;;;14.90;99.90;;;;;;4975539;28;20226;-76
2022/08/12 07:21:22;;;;;;;5.97;2.47;;;14.80;99.90;;;;;;4975756;28;20206;-70
2022/08/12 07:23:49;;;;;;;4.03;2.60;;;14.80;99.90;;;;;;4958216;28;20547;-72
2022/08/12 07:26:18;;;;;;;5.07;2.80;;;14.80;99.90;;;;;;4975778;28;20202;-70
2022/08/12 07:28:49;;;;;;;5.63;2.80;;;14.60;99.90;;;;;;4975125;28;20223;-70
2022/08/12 07:31:17;;;;;;;3.10;2.00;;;14.60;99.90;;;;;;4975594;28;20181;-72
2022/08/12 07:33:45;;;;;;;3.13;2.10;;;14.50;99.90;;;;;;4958000;28;20176;-75
2022/08/12 07:36:13;;;;;;;3.37;2.20;;;14.50;99.90;;;;;;4975501;28;20182;-74
2022/08/12 07:38:47;;;;;;;10.53;2.67;;;14.40;99.90;;;;;;4957912;28;20190;-70
2022/08/12 07:41:24;;;;;;;12.07;7.90;;;14.40;99.90;;;;;;4975318;28;20266;-71
2022/08/12 07:43:55;;;;;;;4.10;2.97;;;14.30;99.90;;;;;;4975397;28;20182;-70
2022/08/12 07:46:33;;;;;;;3.17;2.20;;;14.30;99.90;;;;;;4975319;28;20175;-71
2022/08/12 07:49:06;;;;;;;4.60;2.33;;;14.30;99.90;;;;;;4975795;28;20206;-71
2022/08/12 07:51:34;;;;;;;5.77;2.07;;;14.30;99.90;;;;;;4975017;28;20515;-71
2022/08/12 07:54:08;;;;;;;8.03;5.57;;;14.30;99.90;;;;;;4974875;28;20657;-71
2022/08/12 07:56:40;;;;;;;12.93;8.73;;;14.30;99.90;;;;;;4975143;28;20258;-69
2022/08/12 07:59:09;;;;;;;15.93;9.27;;;14.30;99.90;;;;;;4975034;28;20179;-70
2022/08/12 08:01:37;;;;;;;5.77;4.97;;;14.40;99.90;;;;;;4975050;28;20214;-70
2022/08/12 08:06:53;;;;;;;5.67;2.40;;;14.30;99.90;;;;;;4975365;28;20273;-72
2022/08/12 08:09:22;;;;;;;3.80;2.33;;;14.40;99.90;;;;;;4974561;28;20646;-74
2022/08/12 08:14:38;;;;;;;9.47;6.77;;;14.30;99.90;;;;;;4974987;28;20197;-71
2022/08/12 08:17:07;;;;;;;5.50;3.60;;;14.20;99.90;;;;;;4974429;28;20186;-74
2022/08/12 08:19:35;;;;;;;11.63;4.60;;;14.30;99.90;;;;;;4974805;28;20189;-79
2022/08/12 08:22:02;;;;;;;8.23;3.97;;;14.20;99.90;;;;;;4973365;28;20629;-71
2022/08/12 08:24:30;;;;;;;12.47;4.33;;;14.20;99.90;;;;;;4973461;28;20274;-72
2022/08/12 08:26:59;;;;;;;6.90;4.23;;;14.10;99.90;;;;;;4973560;28;20221;-71
2022/08/12 08:29:28;;;;;;;4.80;2.73;;;14.00;99.90;;;;;;4974063;28;20281;-72
2022/08/12 08:32:00;;;;;;;4.37;3.50;;;13.90;99.90;;;;;;4971756;28;20294;-73
2022/08/12 08:34:32;;;;;;;6.40;4.20;;;13.90;99.90;;;;;;4973156;28;20191;-72
2022/08/12 08:36:59;;;;;;;7.50;3.50;;;13.90;99.90;;;;;;4972983;28;20210;-73
2022/08/12 08:39:27;;;;;;;5.07;3.13;;;14.00;99.90;;;;;;4972224;28;20265;-73
2022/08/12 08:44:41;;;;;;;5.70;3.53;;;13.90;99.90;;;;;;4972595;28;20183;-72
2022/08/12 08:47:12;;;;;;;4.87;3.57;;;13.90;99.90;;;;;;4985348;28;20258;-71
2022/08/12 08:49:40;;;;;;;11.13;8.30;;;13.90;99.90;;;;;;4977791;28;20631;-73
2022/08/12 08:52:10;;;;;;;5.13;4.37;;;13.90;99.90;;;;;;4972719;28;20185;-72
2022/08/12 08:54:39;;;;;;;6.83;4.47;;;14.00;99.90;;;;;;4955438;28;20307;-71
2022/08/12 08:57:07;;;;;;;7.63;5.10;;;14.00;99.90;;;;;;4954346;28;20555;-69
2022/08/12 08:59:35;;;;;;;8.13;4.70;;;14.00;99.90;;;;;;4972586;28;20210;-71
2022/08/12 09:02:03;;;;;;;6.83;5.20;;;14.00;99.90;;;;;;4955304;28;20231;-71
2022/08/12 09:04:31;;;;;;;5.80;4.80;;;14.10;99.90;;;;;;4972314;28;20179;-72
2022/08/12 09:06:59;;;;;;;6.20;4.60;;;14.10;99.90;;;;;;4972466;28;20167;-71
2022/08/12 09:09:27;;;;;;;7.00;4.93;;;14.10;99.90;;;;;;4972054;28;20221;-71
2022/08/12 09:14:42;;;;;;;18.17;8.00;;;14.00;99.90;;;;;;4972707;28;20186;-71
2022/08/12 09:17:12;;;;;;;6.77;4.70;;;14.00;99.90;;;;;;4972092;28;20230;-71
2022/08/12 09:19:40;;;;;;;8.47;4.77;;;14.00;99.90;;;;;;4972277;28;20554;-72
2022/08/12 09:22:08;;;;;;;7.63;4.43;;;14.00;99.90;;;;;;4972411;28;20627;-72
2022/08/12 09:24:36;;;;;;;6.60;4.40;;;13.90;99.90;;;;;;4972381;28;20182;-70
2022/08/12 09:27:05;;;;;;;6.93;4.70;;;13.90;99.90;;;;;;4971948;28;20252;-70
2022/08/12 09:29:33;;;;;;;7.27;4.63;;;14.00;99.90;;;;;;4972170;28;20715;-72
2022/08/12 09:32:05;;;;;;;9.93;6.33;;;13.90;99.90;;;;;;4972580;28;20198;-72
2022/08/12 09:34:33;;;;;;;6.23;4.33;;;13.90;99.90;;;;;;4972638;28;20186;-72
2022/08/12 09:37:02;;;;;;;10.23;6.53;;;13.80;99.90;;;;;;4972556;28;20183;-72
2022/08/12 09:39:31;;;;;;;7.77;5.37;;;13.80;99.90;;;;;;4972737;28;20186;-71
2022/08/12 09:47:30;;;;;;;8.03;5.03;;;14.00;99.90;;;;;;4972718;28;20261;-72
2022/08/12 09:49:58;;;;;;;8.77;5.30;;;14.00;99.90;;;;;;4972870;28;20699;-72
2022/08/12 09:52:25;;;;;;;10.93;6.30;;;14.00;99.90;;;;;;4973699;28;20191;-71
2022/08/12 09:54:53;;;;;;;7.67;5.87;;;13.90;99.90;;;;;;4973761;28;20237;-71
2022/08/12 09:57:21;;;;;;;8.17;4.97;;;14.00;99.90;;;;;;4973597;28;20188;-72
2022/08/12 09:59:49;;;;;;;7.27;5.33;;;13.90;99.90;;;;;;4973404;28;20184;-72
2022/08/12 10:02:16;;;;;;;12.33;5.90;;;14.00;99.90;;;;;;4973570;28;20646;-72
2022/08/12 10:04:47;;;;;;;10.30;5.83;;;14.00;99.90;;;;;;4972342;28;20613;-73
2022/08/12 10:07:15;;;;;;;12.07;8.23;;;14.00;99.90;;;;;;4973592;28;20183;-72
2022/08/12 10:09:43;;;;;;;9.50;6.47;;;14.00;99.90;;;;;;4976744;28;20218;-72
2022/08/12 10:14:57;;;;;;;7.83;6.20;;;13.90;99.90;;;;;;4977129;28;20189;-72
2022/08/12 10:17:25;;;;;;;11.33;5.90;;;13.80;99.90;;;;;;4975110;28;20214;-72
2022/08/12 10:19:52;;;;;;;8.27;5.83;;;13.80;99.90;;;;;;4975662;28;20234;-72
2022/08/12 10:22:21;;;;;;;9.17;6.00;;;13.80;99.90;;;;;;4976838;28;20179;-72
2022/08/12 10:29:35;;;;;;;7.87;5.07;;;13.80;99.90;;;;;;4975150;28;20526;-71
2022/08/12 10:30:22;;;;;;;11.67;4.73;;;13.90;99.90;;;;;;4975544;28;20218;-71
2022/08/12 10:32:58;;;;;;;6.87;5.27;;;13.80;99.90;;;;;;4975409;28;20196;-71
2022/08/12 10:35:30;;;;;;;7.53;5.13;;;13.80;99.90;;;;;;4975582;28;20181;-72
2022/08/12 10:38:01;;;;;;;7.70;5.17;;;13.80;99.90;;;;;;4974557;28;20674;-71
2022/08/12 10:40:31;;;;;;;5.93;4.67;;;13.80;99.90;;;;;;4975451;28;20182;-71
2022/08/12 10:45:47;;;;;;;9.13;5.53;;;13.70;99.90;;;;;;4974942;28;20268;-71
2022/08/12 10:48:15;;;;;;;5.37;4.43;;;13.60;99.90;;;;;;4974609;28;20198;-72
2022/08/12 10:50:43;;;;;;;6.40;4.70;;;13.60;99.90;;;;;;4974481;28;20232;-71
2022/08/12 10:53:11;;;;;;;6.73;4.93;;;13.60;99.90;;;;;;4957443;28;20266;-71
2022/08/12 10:55:39;;;;;;;6.63;5.40;;;13.70;99.90;;;;;;4974749;28;20650;-71
2022/08/12 10:58:07;;;;;;;7.30;6.37;;;13.70;99.90;;;;;;4974340;28;20198;-71
2022/08/12 11:00:37;;;;;;;10.03;6.50;;;13.70;99.90;;;;;;4957489;28;20179;-71
2022/08/12 11:03:06;;;;;;;7.10;5.13;;;13.70;99.90;;;;;;4985733;28;20225;-71
2022/08/12 11:05:35;;;;;;;6.57;5.63;;;13.70;99.90;;;;;;4977515;28;20225;-72
2022/08/12 11:08:03;;;;;;;7.93;5.57;;;13.70;99.90;;;;;;4975196;28;20666;-72
2022/08/12 11:10:31;;;;;;;8.33;5.70;;;13.60;99.90;;;;;;4975442;28;20712;-72
2022/08/12 11:12:59;;;;;;;7.70;6.17;;;13.70;99.90;;;;;;4975678;28;20197;-72
2022/08/12 11:15:27;;;;;;;7.73;5.90;;;13.70;99.90;;;;;;4974421;28;20613;-73
2022/08/12 11:17:55;;;;;;;8.90;6.50;;;13.70;99.90;;;;;;4975170;28;20277;-73
2022/08/12 11:20:23;;;;;;;6.80;6.00;;;13.60;99.90;;;;;;4974651;28;20193;-72
2022/08/12 11:23:01;;;;;;;11.07;6.83;;;13.70;99.90;;;;;;4975464;28;20178;-72
2022/08/12 11:25:29;;;;;;;12.33;7.70;;;13.70;99.90;;;;;;4975348;28;20197;-72
2022/08/12 11:27:57;;;;;;;10.00;6.63;;;13.70;99.90;;;;;;4975377;28;20195;-72
2022/08/12 11:30:24;;;;;;;10.00;6.67;;;13.70;99.90;;;;;;4975355;28;20225;-72
2022/08/12 11:32:52;;;;;;;9.93;7.63;;;13.60;99.90;;;;;;4975141;28;20620;-72
2022/08/12 11:35:20;;;;;;;6.67;5.60;;;13.60;99.90;;;;;;4974420;28;20258;-72
2022/08/12 11:37:48;;;;;;;8.43;5.20;;;13.70;99.90;;;;;;4975274;28;20273;-73
2022/08/12 11:40:16;;;;;;;8.97;6.07;;;13.70;99.90;;;;;;4975214;28;20205;-72
2022/08/12 11:42:43;;;;;;;11.60;6.13;;;13.70;99.90;;;;;;4975267;28;20219;-72
2022/08/12 11:45:12;;;;;;;9.90;5.27;;;13.70;99.90;;;;;;4975101;28;20233;-72
2022/08/12 11:47:39;;;;;;;9.40;6.70;;;13.70;99.90;;;;;;4975789;28;20190;-71
2022/08/12 11:50:08;;;;;;;8.50;5.70;;;13.70;99.90;;;;;;4974422;28;20571;-72
2022/08/12 11:52:36;;;;;;;6.67;5.27;;;13.70;99.90;;;;;;4974272;28;20182;-72
2022/08/12 11:55:04;;;;;;;10.70;8.20;;;13.70;99.90;;;;;;4974879;28;20267;-71
2022/08/12 11:57:31;;;;;;;10.20;7.53;;;13.70;99.90;;;;;;4974660;28;20239;-72
2022/08/12 11:59:59;;;;;;;11.07;8.27;;;13.70;99.90;;;;;;4974949;28;20261;-72
2022/08/12 12:02:27;;;;;;;14.13;10.17;;;13.70;99.90;;;;;;4974901;28;20177;-72
2022/08/12 12:04:55;;;;;;;15.07;11.03;;;13.70;99.90;;;;;;4957468;28;20191;-72
2022/08/12 12:07:23;;;;;;;11.47;7.23;;;13.80;99.90;;;;;;4974701;28;20220;-72
2022/08/12 12:09:50;;;;;;;9.53;5.20;;;13.80;99.90;;;;;;4974775;28;20268;-72
2022/08/12 12:12:18;;;;;;;8.40;5.87;;;13.80;99.90;;;;;;4974888;28;20605;-72
2022/08/12 12:14:46;;;;;;;6.60;5.67;;;13.70;99.90;;;;;;4974622;28;20191;-71
2022/08/12 12:17:14;;;;;;;6.40;5.27;;;13.70;99.90;;;;;;4974976;28;20587;-72
2022/08/12 12:19:41;;;;;;;7.13;5.70;;;13.70;99.90;;;;;;4974704;28;20183;-72
2022/08/12 12:22:09;;;;;;;7.70;5.70;;;13.80;99.90;;;;;;4974747;28;20650;-71
2022/08/12 12:24:37;;;;;;;7.07;5.80;;;13.80;99.90;;;;;;4974641;28;20190;-72
2022/08/12 12:27:07;;;;;;;7.87;5.90;;;13.80;99.90;;;;;;4974528;28;20186;-72
2022/08/12 12:29:35;;;;;;;8.73;5.67;;;13.80;99.90;;;;;;4974555;28;20272;-72
2022/08/12 12:32:03;;;;;;;7.80;5.53;;;13.70;99.90;;;;;;4973772;28;20236;-72
2022/08/12 12:34:31;;;;;;;6.50;5.37;;;13.70;99.90;;;;;;4974494;28;20187;-72
2022/08/12 12:36:58;;;;;;;6.27;5.33;;;13.70;99.90;;;;;;4974388;28;20179;-72
2022/08/12 12:39:26;;;;;;;10.40;5.10;;;13.70;99.90;;;;;;4974517;28;20186;-72
2022/08/12 12:41:54;;;;;;;6.60;5.20;;;13.70;99.90;;;;;;4974420;28;20673;-72
2022/08/12 12:44:22;;;;;;;7.33;5.40;;;13.70;99.90;;;;;;4974254;28;20186;-71
2022/08/12 12:46:50;;;;;;;6.10;5.50;;;13.70;99.90;;;;;;4974299;28;20527;-71
2022/08/12 12:49:17;;;;;;;6.70;5.73;;;13.70;99.90;;;;;;4974251;28;20217;-72
2022/08/12 12:51:45;;;;;;;9.27;5.47;;;13.70;99.90;;;;;;4973538;28;20199;-71
2022/08/12 12:54:13;;;;;;;6.33;5.57;;;13.70;99.90;;;;;;4974143;28;20222;-71
2022/08/12 12:56:41;;;;;;;6.00;5.30;;;13.70;99.90;;;;;;4974179;28;20237;-71
2022/08/12 12:59:09;;;;;;;11.80;5.50;;;13.70;99.90;;;;;;4973943;28;20650;-72
2022/08/12 13:01:38;;;;;;;8.97;5.40;;;13.70;99.90;;;;;;4973770;28;20182;-71
2022/08/12 13:04:07;;;;;;;5.73;4.90;;;13.70;99.90;;;;;;4974135;28;20595;-72
2022/08/12 13:06:35;;;;;;;6.20;5.60;;;13.70;99.90;;;;;;4973758;28;20201;-72
2022/08/12 13:09:03;;;;;;;6.77;5.90;;;13.60;99.90;;;;;;4974145;28;20214;-72
2022/08/12 13:11:32;;;;;;;10.00;5.27;;;13.60;99.90;;;;;;4972751;28;20194;-72
2022/08/12 13:14:00;;;;;;;6.40;5.70;;;13.60;99.90;;;;;;4972387;28;20214;-72
2022/08/12 13:16:28;;;;;;;5.50;5.00;;;13.50;99.90;;;;;;4974038;28;20190;-72
2022/08/12 13:18:56;;;;;;;6.90;5.20;;;13.50;99.90;;;;;;4956284;28;20234;-73
2022/08/12 13:21:29;;;;;;;6.27;4.83;;;13.50;99.90;;;;;;4974073;28;20549;-72
2022/08/12 13:23:57;;;;;;;5.90;4.87;;;13.60;99.90;;;;;;4971135;28;20194;-72
2022/08/12 13:26:31;;;;;;;5.50;4.70;;;13.60;99.90;;;;;;4956560;28;20186;-73
2022/08/12 13:28:59;;;;;;;6.63;4.47;;;13.50;99.90;;;;;;4973729;28;20211;-72
2022/08/12 13:31:27;;;;;;;4.57;4.13;;;13.50;99.90;;;;;;4973686;28;20654;-72
2022/08/12 13:33:55;;;;;;;6.07;4.50;;;13.50;99.90;;;;;;4956464;28;20239;-72
2022/08/12 13:36:23;;;;;;;5.43;4.20;;;13.50;99.90;;;;;;4973817;28;20210;-73
2022/08/12 13:38:51;;;;;;;8.20;4.33;;;13.40;99.90;;;;;;4973711;28;20213;-71
2022/08/12 13:41:34;;;;;;;5.33;3.60;;;13.40;99.90;;;;;;4973722;28;20547;-71
2022/08/12 13:44:10;;;;;;;5.93;4.00;;;13.40;99.90;;;;;;4976460;28;20190;-71
2022/08/12 13:46:40;;;;;;;4.70;4.20;;;13.40;99.90;;;;;;4977855;28;20632;-72
2022/08/12 13:49:12;;;;;;;9.30;5.37;;;13.40;99.90;;;;;;4977050;28;20320;-72
2022/08/12 13:51:41;;;;;;;8.37;5.73;;;13.40;99.90;;;;;;4977312;28;20202;-72
2022/08/12 13:54:09;;;;;;;6.73;6.07;;;13.30;99.90;;;;;;4976938;28;20323;-73
2022/08/12 13:56:37;;;;;;;11.87;9.57;;;13.30;99.90;;;;;;4977410;28;20179;-71
2022/08/12 13:59:06;;;;;;;12.03;10.23;;;13.30;99.90;;;;;;4977249;28;20245;-71
2022/08/12 14:01:35;;;;;;;19.20;11.53;;;13.30;99.90;;;;;;4959798;28;20195;-71
2022/08/12 14:04:03;;;;;;;11.13;9.93;;;13.30;99.90;;;;;;4976649;28;20202;-73
2022/08/12 14:06:32;;;;;;;10.90;9.80;;;13.30;99.90;;;;;;4959724;28;20187;-73
2022/08/12 14:09:00;;;;;;;15.53;10.97;;;13.30;99.90;;;;;;4977013;28;20222;-72
2022/08/12 14:11:28;;;;;;;8.77;7.67;;;13.30;99.90;;;;;;4977129;28;20183;-72
2022/08/12 14:13:58;;;;;;;8.20;7.40;;;13.30;99.90;;;;;;4959502;28;20278;-71
2022/08/12 14:16:28;;;;;;;9.43;7.60;;;13.30;99.90;;;;;;4977051;28;20183;-72
2022/08/12 14:18:56;;;;;;;7.03;6.30;;;13.30;99.90;;;;;;4959128;28;20317;-72
2022/08/12 14:21:25;;;;;;;6.27;5.67;;;13.30;99.90;;;;;;4959585;28;20193;-72
2022/08/12 14:23:53;;;;;;;6.70;6.00;;;13.20;99.90;;;;;;4976159;28;20560;-72
2022/08/12 14:26:23;;;;;;;8.47;6.47;;;13.20;99.90;;;;;;4976316;28;20190;-73
2022/08/12 14:28:54;;;;;;;6.60;5.90;;;13.20;99.90;;;;;;4977075;28;20630;-71
2022/08/12 14:31:23;;;;;;;7.43;6.63;;;13.20;99.90;;;;;;4976768;28;20831;-71
2022/08/12 14:33:51;;;;;;;6.93;6.07;;;13.20;99.90;;;;;;4959540;28;20278;-72
2022/08/12 14:36:23;;;;;;;7.57;6.20;;;13.10;99.90;;;;;;4976581;28;20585;-73
2022/08/12 14:38:54;;;;;;;6.83;5.97;;;13.10;99.90;;;;;;4976336;28;20671;-73
2022/08/12 14:41:25;;;;;;;8.07;5.83;;;13.10;99.90;;;;;;4976519;28;20215;-71
2022/08/12 14:43:53;;;;;;;9.13;5.90;;;13.00;99.90;;;;;;4976458;28;20179;-71
2022/08/12 14:46:23;;;;;;;6.17;5.57;;;13.00;99.90;;;;;;4976487;28;20229;-71
2022/08/12 14:48:53;;;;;;;6.43;5.50;;;13.00;99.90;;;;;;4958391;28;20193;-72
2022/08/12 14:51:23;;;;;;;9.33;6.83;;;12.90;99.90;;;;;;4976005;28;20211;-72
2022/08/12 14:53:51;;;;;;;7.27;6.20;;;13.00;99.90;;;;;;4975818;28;20181;-71
2022/08/12 14:56:21;;;;;;;9.50;6.40;;;13.00;99.90;;;;;;4956097;29;20313;-71